Time;durP1;ratioP1;P1;durP2;ratioP2;P2;SDS_P1;SDS_P2;PMS_P1;PMS_P2;Temp;Humidity;BMP_temperature;BMP_pressure;BME280_temperature;BME280_humidity;BME280_pressure;Samples;Min_cycle;Max_cycle;Signal;HPM_P1;HPM_P2
2023/10/25 00:01:20;;;;;;;25.87;11.57;;;;;;;-141.97;nan;47572.91;5071562;28;20188;-83
2023/10/25 00:03:46;;;;;;;28.73;11.40;;;;;;;-141.97;nan;47499.84;5053422;28;20708;-83
2023/10/25 00:06:11;;;;;;;29.57;11.63;;;;;;;-141.97;nan;47563.28;5071766;28;20561;-83
2023/10/25 00:08:37;;;;;;;31.97;11.93;;;;;;;-141.97;nan;47599.81;5053968;28;20216;-84
2023/10/25 00:11:07;;;;;;;30.27;12.90;;;;;;;-141.97;nan;47544.06;5071150;28;20218;-84
2023/10/25 00:13:33;;;;;;;34.07;13.30;;;;;;;-141.97;nan;47490.25;5071042;28;20188;-84
2023/10/25 00:15:58;;;;;;;32.87;12.67;;;;;;;-141.97;nan;47578.66;5071010;28;20171;-84
2023/10/25 00:18:24;;;;;;;29.43;12.27;;;;;;;-141.97;nan;47597.88;5071060;28;20267;-84
2023/10/25 00:20:51;;;;;;;29.40;11.67;;;;;;;-141.97;nan;47584.44;5070981;28;20165;-84
2023/10/25 00:23:18;;;;;;;25.87;11.83;;;;;;;-141.97;nan;47661.31;5071048;28;20169;-85
2023/10/25 00:25:43;;;;;;;35.30;12.80;;;;;;;-141.97;nan;47701.69;5053186;28;20177;-85
2023/10/25 00:28:09;;;;;;;29.77;12.17;;;;;;;-141.97;nan;47505.63;5074600;28;20172;-84
2023/10/25 00:30:34;;;;;;;33.00;12.83;;;;;;;-141.97;nan;47521.00;5072221;28;20228;-84
2023/10/25 00:33:00;;;;;;;29.53;11.93;;;;;;;-141.97;nan;47615.19;5094085;28;20216;-84
2023/10/25 00:35:25;;;;;;;31.53;12.37;;;;;;;-141.97;nan;47532.53;5071725;28;20167;-85
2023/10/25 00:37:51;;;;;;;28.53;12.27;;;;;;;-141.97;nan;47480.63;5053142;28;20164;-85
2023/10/25 00:40:16;;;;;;;25.90;12.20;;;;;;;-141.97;nan;47622.88;5094230;28;20195;-83
2023/10/25 00:42:42;;;;;;;28.47;12.80;;;;;;;-141.97;nan;47749.72;5081070;28;20214;-85
2023/10/25 00:45:07;;;;;;;27.37;12.47;;;;;;;-141.97;nan;47505.63;5075103;28;20169;-84
2023/10/25 00:47:33;;;;;;;29.03;13.00;;;;;;;-141.97;nan;47597.88;5056400;28;20164;-86
2023/10/25 00:49:59;;;;;;;26.80;12.10;;;;;;;-141.97;nan;47699.75;5075151;28;20192;-85
2023/10/25 00:52:24;;;;;;;33.10;12.80;;;;;;;-141.97;nan;47655.53;5057442;28;20179;-85
2023/10/25 00:54:51;;;;;;;26.27;12.73;;;;;;;-141.97;nan;47574.81;5071725;28;20541;-84
2023/10/25 00:57:18;;;;;;;31.10;14.83;;;;;;;-141.97;nan;47580.59;5055567;28;20629;-86
2023/10/25 00:59:43;;;;;;;33.43;14.40;;;;;;;-141.97;nan;47607.50;5074489;28;20234;-86
2023/10/25 01:02:11;;;;;;;31.43;14.20;;;;;;;-141.97;nan;47722.81;5074024;28;20161;-85
2023/10/25 01:04:36;;;;;;;31.43;12.57;;;;;;;-141.97;nan;47611.34;5070844;28;20196;-84
2023/10/25 01:07:02;;;;;;;26.03;12.50;;;;;;;-141.97;nan;47644.00;5070292;28;20161;-84
2023/10/25 01:09:30;;;;;;;24.23;11.70;;;;;;;-141.97;nan;47546.00;5096333;28;20232;-84
2023/10/25 01:11:56;;;;;;;25.43;11.27;;;;;;;-141.97;nan;47615.19;5074627;28;20153;-85
2023/10/25 01:14:26;;;;;;;24.23;11.40;;;;;;;-141.97;nan;47522.91;5073198;28;20161;-85
2023/10/25 01:16:52;;;;;;;28.40;11.37;;;;;;;-141.97;nan;47615.19;5072675;28;20591;-85
2023/10/25 01:19:17;;;;;;;29.27;10.67;;;;;;;-141.97;nan;47565.22;5053224;28;20169;-83
2023/10/25 01:21:43;;;;;;;30.23;11.07;;;;;;;-141.97;nan;47459.50;5052684;28;20172;-83
2023/10/25 01:24:09;;;;;;;29.57;11.13;;;;;;;-141.97;nan;47609.41;5070258;28;20165;-83
2023/10/25 01:26:36;;;;;;;26.47;10.77;;;;;;;-141.97;nan;47722.81;5072888;28;20172;-84
2023/10/25 01:29:01;;;;;;;25.67;10.97;;;;;;;-141.97;nan;47465.25;5074100;28;20625;-83
2023/10/25 01:31:26;;;;;;;23.57;10.10;;;;;;;-141.97;nan;47624.78;5075310;28;20228;-83
2023/10/25 01:33:52;;;;;;;26.90;10.30;;;;;;;-141.97;nan;47538.28;5075352;28;20164;-83
2023/10/25 01:36:18;;;;;;;22.90;9.70;;;;;;;-141.97;nan;47572.91;5075399;28;20164;-83
2023/10/25 01:38:44;;;;;;;25.00;10.40;;;;;;;-141.97;nan;47557.53;5075150;28;20186;-84
2023/10/25 01:41:15;;;;;;;28.23;10.23;;;;;;;-141.97;nan;47542.16;5075151;28;20169;-81
2023/10/25 01:43:41;;;;;;;21.37;10.10;;;;;;;-141.97;nan;47651.69;5056385;28;20579;-83
2023/10/25 01:46:07;;;;;;;23.93;9.57;;;;;;;-141.97;nan;47632.47;5056941;28;20184;-83
2023/10/25 01:48:32;;;;;;;31.83;10.27;;;;;;;-141.97;nan;47588.28;5074865;28;20153;-84
2023/10/25 01:50:57;;;;;;;20.50;9.70;;;;;;;-141.97;nan;47611.34;5074821;28;20165;-84
2023/10/25 01:53:23;;;;;;;21.60;10.17;;;;;;;-141.97;nan;47745.88;5077777;28;20176;-85
2023/10/25 01:55:50;;;;;;;23.60;9.97;;;;;;;-141.97;nan;47580.59;5077872;28;20169;-85
2023/10/25 01:58:16;;;;;;;21.63;9.40;;;;;;;-141.97;nan;47530.59;5060362;28;20160;-86
2023/10/25 02:00:41;;;;;;;22.83;9.57;;;;;;;-141.97;nan;47601.72;5077426;28;20252;-85
2023/10/25 02:03:07;;;;;;;25.87;9.40;;;;;;;-141.97;nan;47597.88;5077889;28;20156;-84
2023/10/25 02:05:32;;;;;;;21.63;9.77;;;;;;;-141.97;nan;47578.66;5060156;28;20682;-85
2023/10/25 02:07:58;;;;;;;22.13;9.20;;;;;;;-141.97;nan;47638.25;5059640;28;20161;-85
2023/10/25 02:10:23;;;;;;;23.40;9.27;;;;;;;-141.97;nan;47584.44;5077150;28;20177;-85
2023/10/25 02:12:49;;;;;;;24.47;10.47;;;;;;;-141.97;nan;47540.22;5077663;28;20206;-84
2023/10/25 02:15:14;;;;;;;23.47;9.60;;;;;;;-141.97;nan;47586.34;5057336;28;20173;-85
2023/10/25 02:17:39;;;;;;;29.07;10.37;;;;;;;-141.97;nan;47594.03;5076706;28;20165;-85
2023/10/25 02:20:06;;;;;;;25.23;10.40;;;;;;;-141.97;nan;47584.44;5075763;28;20153;-84
2023/10/25 02:22:31;;;;;;;28.53;10.63;;;;;;;-141.97;nan;47461.41;5078119;28;20217;-85
2023/10/25 02:24:56;;;;;;;66.97;27.57;;;;;;;-141.97;nan;47567.13;5075263;28;20169;-85
2023/10/25 02:27:22;;;;;;;24.67;10.83;;;;;;;-141.97;nan;47524.84;5076370;28;20192;-85
2023/10/25 02:29:49;;;;;;;27.30;11.10;;;;;;;-141.97;nan;47530.59;5076862;28;20232;-84
2023/10/25 02:32:15;;;;;;;27.10;10.07;;;;;;;-141.97;nan;47651.69;5077131;28;20192;-85
2023/10/25 02:34:40;;;;;;;25.37;9.80;;;;;;;-141.97;nan;47726.66;5077820;28;20160;-85
2023/10/25 02:37:06;;;;;;;26.23;9.73;;;;;;;-141.97;nan;47599.81;5078182;28;20177;-85
2023/10/25 02:39:31;;;;;;;28.13;10.13;;;;;;;-141.97;nan;47603.66;5081224;28;20266;-84
2023/10/25 02:41:57;;;;;;;30.70;10.63;;;;;;;-141.97;nan;47546.00;5081737;28;20176;-85
2023/10/25 02:44:22;;;;;;;30.93;10.90;;;;;;;-141.97;nan;47611.34;5083983;28;20169;-84
2023/10/25 02:46:48;;;;;;;28.23;10.70;;;;;;;-141.97;nan;47619.03;5082322;28;20179;-85
2023/10/25 02:49:13;;;;;;;27.43;10.70;;;;;;;-141.97;nan;47630.56;5059947;28;20208;-84
2023/10/25 02:51:38;;;;;;;28.10;11.27;;;;;;;-141.97;nan;47607.50;5074021;28;20187;-85
2023/10/25 02:54:05;;;;;;;37.00;13.90;;;;;;;-141.97;nan;47726.66;5055206;28;20249;-86
2023/10/25 02:56:30;;;;;;;36.60;13.70;;;;;;;-141.97;nan;47532.53;5073012;28;20226;-86
2023/10/25 02:58:55;;;;;;;27.67;11.47;;;;;;;-141.97;nan;47522.91;5074717;28;20164;-86
2023/10/25 03:01:24;;;;;;;30.17;11.10;;;;;;;-141.97;nan;47730.50;5073020;28;20216;-85
2023/10/25 03:03:50;;;;;;;27.50;11.10;;;;;;;-141.97;nan;47603.66;5076233;28;20177;-86
2023/10/25 03:06:15;;;;;;;26.03;11.23;;;;;;;-141.97;nan;47718.97;5063673;28;20169;-86
2023/10/25 03:08:41;;;;;;;30.37;11.57;;;;;;;-141.97;nan;47692.06;5056640;28;20169;-86
2023/10/25 03:11:06;;;;;;;32.43;11.00;;;;;;;-141.97;nan;47576.75;5072288;28;20165;-85
2023/10/25 03:13:31;;;;;;;23.97;9.97;;;;;;;-141.97;nan;47613.25;5054732;28;20172;-85
2023/10/25 03:15:57;;;;;;;26.23;10.23;;;;;;;-141.97;nan;47644.00;5072016;28;20585;-86
2023/10/25 03:18:23;;;;;;;22.63;10.03;;;;;;;-141.97;nan;47626.72;5073085;28;20274;-85
2023/10/25 03:20:48;;;;;;;28.57;10.27;;;;;;;-141.97;nan;47580.59;5054498;28;20617;-85
2023/10/25 03:23:14;;;;;;;30.07;10.40;;;;;;;-141.97;nan;47549.84;5054882;28;20176;-85
2023/10/25 03:25:39;;;;;;;26.60;9.80;;;;;;;-141.97;nan;47599.81;5073395;28;20543;-86
2023/10/25 03:28:05;;;;;;;22.23;9.47;;;;;;;-141.97;nan;47722.81;5067201;28;20165;-85
2023/10/25 03:30:30;;;;;;;25.13;9.87;;;;;;;-141.97;nan;47718.97;5087206;28;20220;-84
2023/10/25 03:32:56;;;;;;;24.47;10.17;;;;;;;-141.97;nan;47655.53;5089477;28;20180;-86
2023/10/25 03:35:21;;;;;;;27.63;11.07;;;;;;;-141.97;nan;47559.44;5084869;28;20190;-84
2023/10/25 03:37:46;;;;;;;22.13;9.73;;;;;;;-141.97;nan;47622.88;5073847;28;20200;-85
2023/10/25 03:40:12;;;;;;;21.47;9.30;;;;;;;-141.97;nan;47532.53;5072238;28;20686;-86
2023/10/25 03:42:38;;;;;;;27.13;9.80;;;;;;;-141.97;nan;47653.63;5072442;28;20169;-86
2023/10/25 03:45:06;;;;;;;24.17;9.70;;;;;;;-141.97;nan;47611.34;5072282;28;20175;-85
2023/10/25 03:47:34;;;;;;;22.93;9.60;;;;;;;-141.97;nan;47628.63;5071803;28;20613;-85
2023/10/25 03:50:01;;;;;;;26.40;10.10;;;;;;;-141.97;nan;47749.72;5052833;28;20192;-84
2023/10/25 03:52:27;;;;;;;23.30;10.53;;;;;;;-141.97;nan;47624.78;5071546;28;20157;-86
2023/10/25 03:54:53;;;;;;;24.67;10.27;;;;;;;-141.97;nan;47640.16;5053070;28;20176;-85
2023/10/25 03:57:19;;;;;;;22.73;10.37;;;;;;;-141.97;nan;47684.38;5071367;28;20172;-85
2023/10/25 03:59:44;;;;;;;23.40;9.13;;;;;;;-141.97;nan;47613.25;5071233;28;20207;-85
2023/10/25 04:02:10;;;;;;;27.33;10.23;;;;;;;-141.97;nan;47653.63;5071611;28;20188;-85
2023/10/25 04:04:35;;;;;;;28.03;9.37;;;;;;;-141.97;nan;47640.16;5072185;28;20187;-86
2023/10/25 04:07:00;;;;;;;20.93;9.37;;;;;;;-141.97;nan;47640.16;5072377;28;20172;-86
2023/10/25 04:09:26;;;;;;;24.07;9.77;;;;;;;-141.97;nan;47628.63;5071105;28;20204;-86
2023/10/25 04:11:51;;;;;;;22.03;9.00;;;;;;;-141.97;nan;47524.84;5070895;28;20160;-84
2023/10/25 04:14:17;;;;;;;21.33;9.47;;;;;;;-141.97;nan;47582.50;5071862;28;20218;-85
2023/10/25 04:16:42;;;;;;;22.63;9.30;;;;;;;-141.97;nan;47619.03;5071307;28;20206;-85
2023/10/25 04:19:07;;;;;;;25.43;10.07;;;;;;;-141.97;nan;47742.03;5056933;28;20225;-85
2023/10/25 04:21:33;;;;;;;24.53;9.27;;;;;;;-141.97;nan;47734.34;5073117;28;20553;-85
2023/10/25 04:23:58;;;;;;;25.10;9.23;;;;;;;-141.97;nan;47569.06;5069702;28;20192;-85
2023/10/25 04:26:24;;;;;;;24.93;9.20;;;;;;;-141.97;nan;47519.06;5072606;28;20180;-85
2023/10/25 04:28:49;;;;;;;24.83;9.50;;;;;;;-141.97;nan;47519.06;5071499;28;20192;-84
2023/10/25 04:31:16;;;;;;;21.97;8.83;;;;;;;-141.97;nan;47511.38;5071171;28;20220;-85
2023/10/25 04:33:42;;;;;;;28.23;9.53;;;;;;;-141.97;nan;47682.47;5053316;28;20195;-85
2023/10/25 04:36:07;;;;;;;23.43;9.40;;;;;;;-141.97;nan;47522.91;5086831;28;20176;-86
2023/10/25 04:38:33;;;;;;;21.80;9.13;;;;;;;-141.97;nan;47526.75;5070772;28;20619;-85
2023/10/25 04:40:58;;;;;;;22.83;9.60;;;;;;;-141.97;nan;47521.00;5052722;28;20659;-86
2023/10/25 04:43:24;;;;;;;27.43;12.30;;;;;;;-141.97;nan;47592.13;5070970;28;20597;-85
2023/10/25 04:45:51;;;;;;;25.10;11.93;;;;;;;-141.97;nan;47576.75;5070639;28;20256;-86
2023/10/25 04:48:17;;;;;;;31.50;11.80;;;;;;;-141.97;nan;47599.81;5052949;28;20198;-85
2023/10/25 04:50:42;;;;;;;88.37;40.60;;;;;;;-141.97;nan;47730.50;5070898;28;20192;-86
2023/10/25 04:53:08;;;;;;;79.60;36.93;;;;;;;-141.97;nan;47707.44;5052646;28;20213;-85
2023/10/25 04:55:34;;;;;;;87.10;44.80;;;;;;;-141.97;nan;47586.34;5070476;28;20212;-85
2023/10/25 04:58:00;;;;;;;52.20;23.97;;;;;;;-141.97;nan;47642.09;5070559;28;20169;-86
2023/10/25 05:00:27;;;;;;;39.37;15.90;;;;;;;-141.97;nan;47597.88;5053484;28;20168;-84
2023/10/25 05:02:53;;;;;;;41.93;15.90;;;;;;;-141.97;nan;47492.16;5057331;28;20259;-85
2023/10/25 05:05:18;;;;;;;31.63;11.57;;;;;;;-141.97;nan;47553.69;5074974;28;20184;-85
2023/10/25 05:07:44;;;;;;;31.50;10.97;;;;;;;-141.97;nan;47607.50;5056702;28;20169;-85
2023/10/25 05:10:12;;;;;;;26.63;10.57;;;;;;;-141.97;nan;47546.00;5074055;28;20673;-84
2023/10/25 05:12:39;;;;;;;28.23;9.97;;;;;;;-141.97;nan;47615.19;5088420;28;20161;-84
2023/10/25 05:15:09;;;;;;;27.83;10.67;;;;;;;-141.97;nan;47630.56;5082261;28;20236;-84
2023/10/25 05:17:35;;;;;;;24.67;10.63;;;;;;;-141.97;nan;47726.66;5060306;28;20160;-85
2023/10/25 05:20:04;;;;;;;29.63;10.77;;;;;;;-141.97;nan;47580.59;5058248;28;20157;-85
2023/10/25 05:22:34;;;;;;;41.67;10.80;;;;;;;-141.97;nan;47607.50;5057513;28;20177;-84
2023/10/25 05:24:59;;;;;;;28.00;10.80;;;;;;;-141.97;nan;47672.84;5069349;28;20173;-85
2023/10/25 05:27:25;;;;;;;35.27;12.00;;;;;;;-141.97;nan;47609.41;5092649;28;20183;-84
2023/10/25 05:29:51;;;;;;;35.10;12.33;;;;;;;-141.97;nan;47595.97;5061189;28;20306;-84
2023/10/25 05:32:21;;;;;;;34.90;12.63;;;;;;;-141.97;nan;47615.19;5082873;28;20183;-87
2023/10/25 05:34:48;;;;;;;35.37;11.93;;;;;;;-141.97;nan;47482.56;5093038;28;20671;-85
2023/10/25 05:37:15;;;;;;;36.23;13.73;;;;;;;-141.97;nan;47634.41;5091061;28;20172;-87
2023/10/25 05:39:41;;;;;;;57.63;15.93;;;;;;;-141.97;nan;47745.88;5063770;28;20232;-86
2023/10/25 05:42:08;;;;;;;50.00;15.03;;;;;;;-141.97;nan;47634.41;5060331;28;20233;-87
2023/10/25 05:44:34;;;;;;;49.90;13.80;;;;;;;-141.97;nan;47576.75;5062360;28;20183;-88
2023/10/25 05:46:59;;;;;;;47.50;14.67;;;;;;;-141.97;nan;47576.75;5074157;28;20164;-88
2023/10/25 05:49:25;;;;;;;41.03;14.07;;;;;;;-141.97;nan;47663.22;5070474;28;20629;-88
2023/10/25 05:51:51;;;;;;;42.60;15.53;;;;;;;-141.97;nan;47699.75;5074088;28;20180;-88
2023/10/25 05:54:17;;;;;;;55.43;18.30;;;;;;;-141.97;nan;47592.13;5073538;28;20168;-87
2023/10/25 05:56:42;;;;;;;60.53;18.53;;;;;;;-141.97;nan;47482.56;5073511;28;20218;-88
2023/10/25 05:59:08;;;;;;;43.13;13.30;;;;;;;-141.97;nan;47563.28;5056748;28;20652;-87
2023/10/25 06:01:51;;;;;;;54.30;12.83;;;;;;;-141.97;nan;47572.91;5058270;28;20181;-87
2023/10/25 06:04:19;;;;;;;40.20;12.70;;;;;;;-141.97;nan;47599.81;5057394;28;20172;-88
2023/10/25 06:06:45;;;;;;;40.83;13.77;;;;;;;-141.97;nan;47638.25;5055977;28;20168;-86
2023/10/25 06:09:13;;;;;;;27.77;12.50;;;;;;;-141.97;nan;47630.56;5074139;28;20306;-87
2023/10/25 06:11:39;;;;;;;43.40;17.83;;;;;;;-141.97;nan;47707.44;5072877;28;20256;-85
2023/10/25 06:14:08;;;;;;;31.27;13.33;;;;;;;-141.97;nan;47622.88;5074271;28;20161;-85
2023/10/25 06:16:34;;;;;;;35.53;12.87;;;;;;;-141.97;nan;47526.75;5073599;28;20538;-85
2023/10/25 06:19:00;;;;;;;32.17;12.03;;;;;;;-141.97;nan;47574.81;5073566;28;20157;-84
2023/10/25 06:21:26;;;;;;;43.50;12.60;;;;;;;-141.97;nan;47661.31;5054982;28;20606;-85
2023/10/25 06:23:51;;;;;;;30.53;13.53;;;;;;;-141.97;nan;47613.25;5073024;28;20157;-84
2023/10/25 06:26:18;;;;;;;38.77;13.93;;;;;;;-141.97;nan;47624.78;5054459;28;20169;-84
2023/10/25 06:28:43;;;;;;;46.60;13.53;;;;;;;-141.97;nan;47730.50;5055821;28;20168;-84
2023/10/25 06:31:14;;;;;;;39.80;13.20;;;;;;;-141.97;nan;47540.22;5074407;28;20208;-87
2023/10/25 06:33:41;;;;;;;44.87;14.63;;;;;;;-141.97;nan;47617.09;5060564;28;20169;-86
2023/10/25 06:36:07;;;;;;;48.23;13.33;;;;;;;-141.97;nan;47626.72;5074617;28;20211;-84
2023/10/25 06:38:33;;;;;;;45.33;15.53;;;;;;;-141.97;nan;47743.97;5074772;28;20173;-84
2023/10/25 06:41:00;;;;;;;44.83;16.23;;;;;;;-141.97;nan;47522.91;5056148;28;20173;-84
2023/10/25 06:43:28;;;;;;;42.63;15.70;;;;;;;-141.97;nan;47634.41;5057242;28;20161;-85
2023/10/25 06:45:54;;;;;;;48.93;18.37;;;;;;;-141.97;nan;47515.22;5074692;28;20160;-83
2023/10/25 06:48:19;;;;;;;34.70;15.10;;;;;;;-141.97;nan;47738.19;5073945;28;20643;-86
2023/10/25 06:50:48;;;;;;;36.70;13.17;;;;;;;-141.97;nan;47665.16;5079837;28;20312;-86
2023/10/25 06:53:13;;;;;;;40.23;14.30;;;;;;;-141.97;nan;47574.81;5057702;28;20256;-87
2023/10/25 06:55:39;;;;;;;38.33;13.53;;;;;;;-141.97;nan;47738.19;5057653;28;20180;-86
2023/10/25 06:58:05;;;;;;;31.23;13.10;;;;;;;-141.97;nan;47757.41;5075669;28;20535;-88
2023/10/25 07:00:31;;;;;;;35.43;14.07;;;;;;;-141.97;nan;47680.53;5058929;28;20225;-87
2023/10/25 07:03:02;;;;;;;36.00;13.40;;;;;;;-141.97;nan;47576.75;5075659;28;20229;-87
2023/10/25 07:05:28;;;;;;;36.77;13.73;;;;;;;-141.97;nan;47665.16;5077151;28;20564;-87
2023/10/25 07:07:54;;;;;;;64.97;29.90;;;;;;;-141.97;nan;47519.06;5064690;28;20218;-85
2023/10/25 07:10:21;;;;;;;57.60;24.20;;;;;;;-141.97;nan;47624.78;5065197;28;20200;-88
2023/10/25 07:12:47;;;;;;;45.20;19.83;;;;;;;-141.97;nan;47755.50;5082206;28;20217;-90
2023/10/25 07:15:13;;;;;;;44.27;19.57;;;;;;;-141.97;nan;47713.22;5063210;28;20176;-90
2023/10/25 07:17:39;;;;;;;46.47;16.23;;;;;;;-141.97;nan;47586.34;5063784;28;20172;-89
2023/10/25 07:20:06;;;;;;;44.13;17.53;;;;;;;-141.97;nan;47595.97;5063599;28;20612;-89
2023/10/25 07:22:32;;;;;;;57.67;18.77;;;;;;;-141.97;nan;47736.28;5057017;28;20605;-90
2023/10/25 07:24:57;;;;;;;55.00;19.20;;;;;;;-141.97;nan;47546.00;5067985;28;20254;-90
2023/10/25 07:27:23;;;;;;;55.83;18.87;;;;;;;-141.97;nan;47657.47;5085961;28;20164;-89
2023/10/25 07:29:49;;;;;;;48.70;19.20;;;;;;;-141.97;nan;47663.22;5045841;28;20332;-90
2023/10/25 07:32:15;;;;;;;85.23;32.33;;;;;;;-141.97;nan;47599.81;5054859;28;20181;-86
2023/10/25 07:34:41;;;;;;;63.93;24.27;;;;;;;-141.97;nan;47594.03;5052939;28;20479;-86
2023/10/25 07:37:07;;;;;;;50.60;16.57;;;;;;;-141.97;nan;47534.44;5052913;28;20180;-89
2023/10/25 07:39:32;;;;;;;45.07;16.63;;;;;;;-141.97;nan;47615.19;5055478;28;20165;-89
2023/10/25 07:41:58;;;;;;;58.77;19.60;;;;;;;-141.97;nan;47613.25;5055558;28;21066;-90
2023/10/25 07:44:23;;;;;;;78.27;31.47;;;;;;;-141.97;nan;47553.69;5054682;28;20173;-90
2023/10/25 07:46:48;;;;;;;48.60;17.70;;;;;;;-141.97;nan;47507.53;5056050;28;20258;-89
2023/10/25 07:49:14;;;;;;;102.20;57.30;;;;;;;-141.97;nan;47530.59;5070089;28;20235;-89
2023/10/25 07:54:14;;;;;;;37.07;17.13;;;;;;;-141.97;nan;47743.97;5132315;22;20711;-89
2023/10/25 07:56:40;;;;;;;44.97;18.00;;;;;;;-141.97;nan;47544.06;5036023;28;20173;-88
2023/10/25 07:59:05;;;;;;;75.47;22.63;;;;;;;-141.97;nan;47620.94;5037787;28;20273;-88
2023/10/25 08:01:31;;;;;;;54.13;19.90;;;;;;;-141.97;nan;47553.69;5036235;28;20173;-89
2023/10/25 08:03:56;;;;;;;35.70;13.23;;;;;;;-141.97;nan;47705.53;5053985;28;20580;-89
2023/10/25 08:06:22;;;;;;;33.60;13.43;;;;;;;-141.97;nan;47446.03;5043566;28;20173;-88
2023/10/25 08:08:50;;;;;;;37.63;13.30;;;;;;;-141.97;nan;47782.41;5055033;28;20219;-89
2023/10/25 08:11:16;;;;;;;38.80;15.67;;;;;;;-141.97;nan;47595.97;5041445;28;20181;-90
2023/10/25 08:13:43;;;;;;;43.07;18.33;;;;;;;-141.97;nan;47540.22;5035049;28;20176;-89
2023/10/25 08:16:09;;;;;;;43.83;15.80;;;;;;;-141.97;nan;47582.50;5034787;28;20178;-90
2023/10/25 08:18:35;;;;;;;32.87;13.27;;;;;;;-141.97;nan;47617.09;5054445;28;20169;-90
2023/10/25 08:21:01;;;;;;;60.57;32.03;;;;;;;-141.97;nan;47642.09;5055177;28;20418;-90
2023/10/25 08:23:27;;;;;;;39.00;13.77;;;;;;;-141.97;nan;47790.09;5058081;28;20166;-89
2023/10/25 08:25:52;;;;;;;44.07;13.93;;;;;;;-141.97;nan;47532.53;5053103;28;20177;-90
2023/10/25 08:28:18;;;;;;;37.87;14.10;;;;;;;-141.97;nan;47565.22;5060200;28;20180;-88
2023/10/25 08:30:44;;;;;;;35.67;13.67;;;;;;;-141.97;nan;47538.28;5031355;28;20239;-88
2023/10/25 08:33:10;;;;;;;37.83;12.73;;;;;;;-141.97;nan;47620.94;5065577;28;20211;-89
2023/10/25 08:35:37;;;;;;;36.37;12.50;;;;;;;-141.97;nan;47611.34;5061622;28;20188;-89
2023/10/25 08:38:05;;;;;;;29.97;12.50;;;;;;;-141.97;nan;47507.53;5039862;28;20180;-90
2023/10/25 08:40:39;;;;;;;33.47;13.50;;;;;;;-141.97;nan;47605.56;5048454;28;20190;-89
2023/10/25 08:43:06;;;;;;;34.70;16.50;;;;;;;-141.97;nan;47565.22;5051722;28;20176;-88
2023/10/25 08:45:35;;;;;;;35.90;14.20;;;;;;;-141.97;nan;47726.66;5042582;28;20184;-88
2023/10/25 08:48:04;;;;;;;40.43;13.67;;;;;;;-141.97;nan;47522.91;5042327;28;20181;-88
2023/10/25 08:50:33;;;;;;;40.70;17.90;;;;;;;-141.97;nan;47607.50;5048802;28;20204;-88
2023/10/25 08:52:59;;;;;;;43.87;20.50;;;;;;;-141.97;nan;47482.56;5072366;28;20247;-87
2023/10/25 08:55:25;;;;;;;45.40;17.43;;;;;;;-141.97;nan;47511.38;5060801;28;20149;-87
2023/10/25 08:57:56;;;;;;;37.83;13.43;;;;;;;-141.97;nan;47611.34;5057714;28;20170;-87
2023/10/25 09:00:30;;;;;;;24.43;12.63;;;;;;;-141.97;nan;47588.28;5075310;28;20237;-88
2023/10/25 09:02:56;;;;;;;33.00;12.37;;;;;;;-141.97;nan;47613.25;5075453;28;20153;-88
2023/10/25 09:05:22;;;;;;;29.63;14.00;;;;;;;-141.97;nan;47611.34;5057125;28;20371;-88
2023/10/25 09:07:48;;;;;;;31.43;13.23;;;;;;;-141.97;nan;47780.47;5056043;28;20327;-88
2023/10/25 09:10:19;;;;;;;37.10;12.80;;;;;;;-141.97;nan;47607.50;5079558;28;20221;-88
2023/10/25 09:12:45;;;;;;;37.75;14.13;;;;;;;-141.97;nan;47557.53;5066052;28;20453;-87
2023/10/25 09:15:11;;;;;;;39.13;16.07;;;;;;;-141.97;nan;47546.00;5074270;28;20181;-87
2023/10/25 09:17:36;;;;;;;29.93;13.30;;;;;;;-141.97;nan;47759.34;5050705;28;20180;-86
2023/10/25 09:20:06;;;;;;;31.50;13.87;;;;;;;-141.97;nan;47597.88;5060001;28;20187;-86
2023/10/25 09:22:31;;;;;;;33.00;12.90;;;;;;;-141.97;nan;47492.16;5038857;28;20633;-85
2023/10/25 09:24:59;;;;;;;41.50;12.60;;;;;;;-141.97;nan;47784.34;5075280;28;20195;-84
2023/10/25 09:27:24;;;;;;;34.87;14.80;;;;;;;-141.97;nan;47542.16;5079248;28;20174;-87
2023/10/25 09:29:50;;;;;;;34.53;12.83;;;;;;;-141.97;nan;47611.34;5047848;28;20241;-86
2023/10/25 09:32:20;;;;;;;29.23;12.93;;;;;;;-141.97;nan;47561.38;5058795;28;20166;-87
2023/10/25 09:34:46;;;;;;;31.53;13.43;;;;;;;-141.97;nan;47521.00;5055824;28;20171;-86
2023/10/25 09:37:12;;;;;;;35.33;14.63;;;;;;;-141.97;nan;47590.19;5037503;28;20260;-84
2023/10/25 09:39:38;;;;;;;34.40;14.70;;;;;;;-141.97;nan;47565.22;5035993;28;20276;-86
2023/10/25 09:42:14;;;;;;;34.10;14.47;;;;;;;-141.97;nan;47699.75;5052997;28;20166;-87
2023/10/25 09:44:51;;;;;;;32.93;14.20;;;;;;;-141.97;nan;47630.56;5056087;28;20248;-87
2023/10/25 09:47:18;;;;;;;30.33;12.90;;;;;;;-141.97;nan;47607.50;5038743;28;20173;-87
2023/10/25 09:49:45;;;;;;;38.03;13.90;;;;;;;-141.97;nan;47745.88;5054996;28;20529;-85
2023/10/25 09:52:18;;;;;;;31.13;13.43;;;;;;;-141.97;nan;47615.19;5054864;28;20157;-87
2023/10/25 09:55:02;;;;;;;39.50;14.00;;;;;;;-141.97;nan;47595.97;5034970;28;20192;-87
2023/10/25 09:57:29;;;;;;;32.30;13.67;;;;;;;-141.97;nan;47603.66;5035599;28;20268;-86
2023/10/25 09:59:57;;;;;;;36.20;15.00;;;;;;;-141.97;nan;47592.13;5036169;28;20617;-85
2023/10/25 10:02:42;;;;;;;37.50;13.77;;;;;;;-141.97;nan;47784.34;5054000;28;20200;-86
2023/10/25 10:05:16;;;;;;;33.73;14.07;;;;;;;-141.97;nan;47753.56;5053062;28;20477;-86
2023/10/25 10:08:01;;;;;;;36.17;15.03;;;;;;;-141.97;nan;47624.78;5035100;28;20176;-86
2023/10/25 10:10:52;;;;;;;36.03;15.00;;;;;;;-141.97;nan;47584.44;5055269;28;20272;-86
2023/10/25 10:13:19;;;;;;;29.60;14.77;;;;;;;-141.97;nan;47547.91;5061810;28;20180;-86
2023/10/25 10:16:04;;;;;;;34.70;15.70;;;;;;;-141.97;nan;47595.97;5046595;28;20229;-87
2023/10/25 10:18:45;;;;;;;34.37;15.73;;;;;;;-141.97;nan;47588.28;5060148;28;20629;-87
2023/10/25 10:21:12;;;;;;;34.50;16.83;;;;;;;-141.97;nan;47580.59;5037584;28;20168;-87
2023/10/25 10:23:40;;;;;;;40.43;16.27;;;;;;;-141.97;nan;47572.91;5056448;28;20552;-86
2023/10/25 10:26:11;;;;;;;41.53;17.20;;;;;;;-141.97;nan;47474.88;5040436;28;20252;-86
2023/10/25 10:28:44;;;;;;;36.13;17.70;;;;;;;-141.97;nan;47511.38;5060663;28;20236;-86
2023/10/25 10:31:13;;;;;;;41.10;16.97;;;;;;;-141.97;nan;47640.16;5033262;28;20228;-87
2023/10/25 10:33:47;;;;;;;45.80;16.70;;;;;;;-141.97;nan;47482.56;5039810;28;20181;-87
2023/10/25 10:36:24;;;;;;;35.13;16.47;;;;;;;-141.97;nan;47553.69;5036910;28;20173;-87
2023/10/25 10:39:12;;;;;;;36.80;16.23;;;;;;;-141.97;nan;47572.91;5039194;28;20183;-85
2023/10/25 10:41:42;;;;;;;45.73;16.30;;;;;;;-141.97;nan;47561.38;5064946;28;20185;-86
2023/10/25 10:44:07;;;;;;;35.57;15.50;;;;;;;-141.97;nan;47570.97;5074844;28;20177;-86
2023/10/25 10:46:41;;;;;;;38.90;15.67;;;;;;;-141.97;nan;47667.06;5064572;28;20625;-85
2023/10/25 10:49:11;;;;;;;38.87;15.80;;;;;;;-141.97;nan;47546.00;5041811;28;20208;-86
2023/10/25 10:51:37;;;;;;;34.77;15.63;;;;;;;-141.97;nan;47665.16;5059020;28;20184;-87
2023/10/25 10:54:02;;;;;;;32.97;15.23;;;;;;;-141.97;nan;47403.75;5040219;28;20307;-86
2023/10/25 10:56:27;;;;;;;31.97;13.97;;;;;;;-141.97;nan;47542.16;5035450;28;20174;-85
2023/10/25 10:58:53;;;;;;;33.73;13.97;;;;;;;-141.97;nan;47592.13;5052201;28;20175;-85
2023/10/25 11:01:19;;;;;;;36.53;14.50;;;;;;;-141.97;nan;47522.91;5052771;28;20985;-85
2023/10/25 11:03:44;;;;;;;31.07;13.33;;;;;;;-141.97;nan;47530.59;5051970;28;20169;-85
2023/10/25 11:06:09;;;;;;;27.80;12.87;;;;;;;-141.97;nan;47461.41;5034249;28;20694;-86
2023/10/25 11:08:35;;;;;;;35.37;13.57;;;;;;;-141.97;nan;47546.00;5034483;28;20165;-86
2023/10/25 11:11:00;;;;;;;32.43;14.07;;;;;;;-141.97;nan;47384.53;5033827;28;20719;-86
2023/10/25 11:13:28;;;;;;;34.67;14.47;;;;;;;-141.97;nan;47519.06;5036998;28;20192;-86
2023/10/25 11:16:08;;;;;;;34.17;15.57;;;;;;;-141.97;nan;47515.22;5051837;28;20223;-86
2023/10/25 11:18:34;;;;;;;28.30;13.17;;;;;;;-141.97;nan;47570.97;5052085;28;20677;-86
2023/10/25 11:21:00;;;;;;;28.07;13.00;;;;;;;-141.97;nan;47570.97;5051644;28;20169;-86